Time;durP1;ratioP1;P1;durP2;ratioP2;P2;SDS_P1;SDS_P2;PMS_P1;PMS_P2;Temp;Humidity;BMP_temperature;BMP_pressure;BME280_temperature;BME280_humidity;BME280_pressure;Samples;Min_cycle;Max_cycle;Signal;HPM_P1;HPM_P2
2022/06/28 00:00:51;;;;;;;16.30;10.15;;;;;;;17.62;82.05;95016.28;1699127;84;20983;-54
2022/06/28 00:03:18;;;;;;;22.85;10.72;;;;;;;17.61;82.05;95016.14;1681707;84;21038;-54
2022/06/28 00:05:47;;;;;;;18.98;11.08;;;;;;;17.63;82.24;95016.42;1699189;84;21543;-54
2022/06/28 00:08:15;;;;;;;15.63;10.85;;;;;;;17.66;82.33;95011.27;1699366;84;21038;-53
2022/06/28 00:10:44;;;;;;;18.42;9.60;;;;;;;17.71;82.28;95011.34;1699249;84;21254;-54
2022/06/28 00:13:12;;;;;;;13.95;8.55;;;;;;;17.77;82.12;95005.83;1658839;84;20967;-53
2022/06/28 00:18:26;;;;;;;11.00;8.63;;;;;;;17.77;81.96;94998.88;1699424;84;21680;-54
2022/06/28 00:20:54;;;;;;;13.83;8.53;;;;;;;17.78;81.93;95010.14;1699056;84;20959;-54
2022/06/28 00:23:22;;;;;;;14.80;7.90;;;;;;;17.78;81.96;95003.19;1699364;84;21957;-53
2022/06/28 00:25:50;;;;;;;10.48;6.97;;;;;;;17.79;81.78;95004.09;1699167;84;21043;-54
2022/06/28 00:28:18;;;;;;;13.85;8.08;;;;;;;17.81;81.71;95003.63;1681399;84;21482;-54
2022/06/28 00:30:46;;;;;;;18.62;8.53;;;;;;;17.79;81.80;95003.34;1699185;84;21070;-54
2022/06/28 00:33:14;;;;;;;14.03;8.45;;;;;;;17.77;81.90;94997.48;1699051;84;20987;-54
2022/06/28 00:35:42;;;;;;;13.08;8.00;;;;;;;17.76;81.89;95002.91;1699320;84;21876;-54
2022/06/28 00:38:12;;;;;;;15.45;9.15;;;;;;;17.73;82.27;94992.14;1681191;84;21046;-54
2022/06/28 00:40:50;;;;;;;14.35;8.08;;;;;;;17.67;82.62;94990.53;1723153;82;21058;-54
2022/06/28 00:43:19;;;;;;;15.93;9.30;;;;;;;17.65;82.76;94991.66;1699216;83;21066;-53
2022/06/28 00:45:47;;;;;;;19.75;10.38;;;;;;;17.66;82.87;94996.72;1699100;84;21057;-53
2022/06/28 00:48:17;;;;;;;20.30;11.22;;;;;;;17.66;82.93;94999.50;1699241;84;21106;-53
2022/06/28 00:50:46;;;;;;;17.00;10.45;;;;;;;17.64;82.83;94999.86;1699784;84;21060;-53
2022/06/28 00:53:17;;;;;;;20.05;11.78;;;;;;;17.59;82.97;95004.09;1699270;84;20960;-54
2022/06/28 00:55:45;;;;;;;19.95;11.28;;;;;;;17.55;83.22;95004.94;1699481;84;21479;-54
2022/06/28 00:58:13;;;;;;;17.35;9.55;;;;;;;17.54;83.38;95003.41;1699073;84;20955;-52
2022/06/28 01:00:43;;;;;;;16.20;9.90;;;;;;;17.55;83.32;95008.33;1681398;84;21762;-54
2022/06/28 01:03:14;;;;;;;16.90;9.68;;;;;;;17.53;83.17;95003.88;1699173;84;20995;-53
2022/06/28 01:05:42;;;;;;;12.73;9.40;;;;;;;17.50;83.19;95002.07;1699485;84;20951;-54
2022/06/28 01:08:10;;;;;;;17.60;9.20;;;;;;;17.47;83.12;95000.27;1699171;84;21011;-54
2022/06/28 01:10:39;;;;;;;13.68;8.83;;;;;;;17.46;83.13;94998.73;1699315;84;21043;-54
2022/06/28 01:13:07;;;;;;;14.90;8.25;;;;;;;17.46;83.27;94991.78;1699316;84;21249;-54
2022/06/28 01:15:37;;;;;;;12.82;9.23;;;;;;;17.47;83.40;94992.67;1699380;84;21617;-53
2022/06/28 01:18:07;;;;;;;17.70;9.80;;;;;;;17.47;83.61;94999.63;1699477;84;21570;-53
2022/06/28 01:20:42;;;;;;;14.93;9.18;;;;;;;17.47;83.72;94999.63;1698071;84;21003;-53
2022/06/28 01:23:17;;;;;;;18.80;9.25;;;;;;;17.50;83.95;94997.90;1699503;83;20965;-53
2022/06/28 01:25:47;;;;;;;12.13;8.53;;;;;;;17.49;83.85;95004.72;1699611;84;21180;-53
2022/06/28 01:28:16;;;;;;;18.70;10.28;;;;;;;17.45;83.81;95006.30;1699433;84;21551;-53
2022/06/28 01:30:46;;;;;;;15.65;10.53;;;;;;;17.40;83.92;95000.66;1658979;84;20983;-54
2022/06/28 01:33:18;;;;;;;21.00;10.60;;;;;;;17.35;84.07;95002.73;1698889;84;21062;-54
2022/06/28 01:35:46;;;;;;;16.32;9.28;;;;;;;17.35;84.34;95005.52;1699409;84;21065;-53
2022/06/28 01:38:13;;;;;;;22.13;10.93;;;;;;;17.38;84.27;95004.55;1699578;84;21160;-54
2022/06/28 01:40:46;;;;;;;16.48;9.75;;;;;;;17.38;84.22;95012.89;1699253;84;20960;-55
2022/06/28 01:43:12;;;;;;;18.35;10.70;;;;;;;17.38;84.34;95010.89;1699543;84;20947;-54
2022/06/28 01:45:42;;;;;;;17.60;10.38;;;;;;;17.37;84.62;95016.31;1658775;84;20974;-54
2022/06/28 01:48:10;;;;;;;17.17;9.43;;;;;;;17.39;84.77;95014.42;1658992;84;20994;-54
2022/06/28 01:50:55;;;;;;;16.12;10.00;;;;;;;17.42;84.53;95010.70;1682504;84;21302;-54
2022/06/28 01:53:23;;;;;;;14.45;9.18;;;;;;;17.40;84.26;95009.78;1699374;84;20967;-53
2022/06/28 01:56:05;;;;;;;17.12;9.80;;;;;;;17.39;84.37;95009.64;1697695;84;20999;-54
2022/06/28 01:58:41;;;;;;;12.45;9.00;;;;;;;17.39;84.33;95006.08;1697254;84;21018;-56
2022/06/28 02:01:09;;;;;;;12.25;8.08;;;;;;;17.35;84.39;95004.91;1699301;84;21051;-54
2022/06/28 02:03:37;;;;;;;13.50;8.50;;;;;;;17.32;84.42;95001.66;1699600;84;22016;-55
2022/06/28 02:06:07;;;;;;;12.63;8.48;;;;;;;17.29;84.56;95007.44;1698530;84;21094;-54
2022/06/28 02:08:35;;;;;;;15.72;9.13;;;;;;;17.30;84.69;95004.80;1681622;84;21474;-53
2022/06/28 02:11:05;;;;;;;17.00;9.93;;;;;;;17.32;85.09;95010.64;1699174;84;20987;-55
2022/06/28 02:13:39;;;;;;;13.80;9.73;;;;;;;17.32;84.70;95005.08;1698284;82;21030;-54
2022/06/28 02:16:06;;;;;;;14.85;10.20;;;;;;;17.27;84.54;95002.34;1699293;83;21238;-56
2022/06/28 02:18:34;;;;;;;12.23;8.65;;;;;;;17.26;84.51;95011.19;1681357;84;20959;-53
2022/06/28 02:21:03;;;;;;;18.92;8.60;;;;;;;17.25;84.70;95006.23;1699480;83;20966;-54
2022/06/28 02:23:31;;;;;;;13.10;8.63;;;;;;;17.23;84.94;95012.13;1722878;82;20967;-54
2022/06/28 02:25:59;;;;;;;14.43;8.45;;;;;;;17.18;85.38;95004.48;1699305;84;21038;-53
2022/06/28 02:28:27;;;;;;;15.08;9.88;;;;;;;17.18;85.51;95001.70;1699381;84;21264;-54
2022/06/28 02:30:56;;;;;;;11.73;9.58;;;;;;;17.19;85.68;95012.36;1681498;84;21046;-53
2022/06/28 02:33:24;;;;;;;13.93;8.65;;;;;;;17.18;85.70;95005.27;1694885;84;20999;-54
2022/06/28 02:41:32;;;;;;;15.70;9.95;;;;;;;17.21;85.99;94998.73;1689325;85;21218;-53
2022/06/28 02:44:00;;;;;;;13.98;9.10;;;;;;;17.15;85.96;94998.50;1689201;85;21539;-53
2022/06/28 02:46:28;;;;;;;11.10;8.35;;;;;;;17.09;86.28;94997.02;1688925;84;20984;-54
2022/06/28 02:48:56;;;;;;;10.95;8.20;;;;;;;17.08;86.40;94991.97;1689262;85;21038;-54
2022/06/28 02:51:24;;;;;;;11.00;8.08;;;;;;;17.05;86.47;94997.08;1689144;85;20952;-54
2022/06/28 02:53:52;;;;;;;13.03;8.53;;;;;;;17.04;86.70;94999.72;1688970;85;21182;-53
2022/06/28 02:56:21;;;;;;;18.12;9.35;;;;;;;17.00;86.78;94994.98;1688892;85;21062;-54
2022/06/28 02:58:48;;;;;;;13.68;8.60;;;;;;;16.96;86.90;95001.37;1689132;85;21051;-54
2022/06/28 03:01:16;;;;;;;15.13;8.63;;;;;;;16.94;87.07;95001.09;1670648;85;21099;-54
2022/06/28 03:03:44;;;;;;;18.45;9.25;;;;;;;16.94;87.20;94999.70;1689060;85;20964;-53
2022/06/28 03:06:13;;;;;;;20.25;8.73;;;;;;;16.96;87.41;94995.81;1689135;85;22155;-52
2022/06/28 03:08:41;;;;;;;16.87;8.78;;;;;;;16.97;87.41;94994.56;1689230;85;20987;-54
2022/06/28 03:11:09;;;;;;;11.20;7.80;;;;;;;16.96;87.46;94997.98;1688994;84;20983;-53
2022/06/28 03:13:37;;;;;;;12.82;8.90;;;;;;;16.96;87.41;94997.98;1688960;85;21039;-54
2022/06/28 03:16:05;;;;;;;15.30;8.28;;;;;;;16.98;87.36;94995.48;1671128;85;21441;-55
2022/06/28 03:18:34;;;;;;;10.32;8.50;;;;;;;17.04;87.29;94994.16;1672028;85;21125;-53
2022/06/28 03:21:03;;;;;;;11.55;8.68;;;;;;;17.13;87.16;94995.44;1688951;85;20951;-54
2022/06/28 03:23:31;;;;;;;10.68;8.60;;;;;;;17.18;86.67;95001.09;1689145;85;20983;-53
2022/06/28 03:25:58;;;;;;;11.48;9.28;;;;;;;17.21;86.24;95005.69;1689256;85;20968;-53
2022/06/28 03:28:27;;;;;;;11.97;8.85;;;;;;;17.24;85.85;95002.57;1689289;85;21058;-53
2022/06/28 03:30:57;;;;;;;8.85;7.33;;;;;;;17.29;85.64;94996.31;1712360;82;21043;-54
2022/06/28 03:33:25;;;;;;;12.00;8.03;;;;;;;17.36;85.30;95002.27;1692097;84;21504;-54
2022/06/28 03:35:53;;;;;;;10.25;8.15;;;;;;;17.43;85.04;95001.10;1699220;83;20971;-55
2022/06/28 03:38:22;;;;;;;13.65;9.98;;;;;;;17.46;84.74;95005.05;1699534;84;21011;-53
2022/06/28 03:40:52;;;;;;;12.18;8.70;;;;;;;17.50;84.66;95002.07;1659382;84;20999;-54
2022/06/28 03:43:21;;;;;;;9.63;7.62;;;;;;;17.53;84.58;94999.09;1699540;84;21839;-54
2022/06/28 03:45:49;;;;;;;12.63;8.43;;;;;;;17.59;84.51;95003.31;1699195;84;21047;-54
2022/06/28 03:48:33;;;;;;;14.93;8.65;;;;;;;17.66;84.40;95005.70;1718674;83;21427;-54
2022/06/28 03:51:19;;;;;;;10.40;8.75;;;;;;;17.67;84.09;95010.02;1699360;84;20986;-54
2022/06/28 03:54:05;;;;;;;13.15;8.50;;;;;;;17.68;83.95;95009.52;1697069;84;20947;-53
2022/06/28 03:56:34;;;;;;;12.15;7.97;;;;;;;17.71;84.03;95008.56;1699170;84;21138;-54
2022/06/28 03:59:02;;;;;;;14.58;8.63;;;;;;;17.79;83.74;95009.67;1680975;84;20963;-55
2022/06/28 04:01:30;;;;;;;13.13;9.25;;;;;;;17.88;83.58;95008.77;1699174;84;20971;-55
2022/06/28 04:03:57;;;;;;;10.93;8.35;;;;;;;17.96;83.07;95013.42;1699410;84;21535;-54
2022/06/28 04:06:25;;;;;;;15.10;9.25;;;;;;;18.06;82.68;95021.00;1699442;83;21483;-53
2022/06/28 04:08:54;;;;;;;30.40;9.30;;;;;;;18.14;82.34;95020.09;1699459;84;21255;-54
2022/06/28 04:11:23;;;;;;;18.37;7.72;;;;;;;18.24;81.81;95025.02;1681167;84;20968;-55
2022/06/28 04:13:52;;;;;;;14.95;8.40;;;;;;;18.34;81.16;95021.48;1699205;84;21054;-54
2022/06/28 04:16:21;;;;;;;10.60;7.92;;;;;;;18.46;80.82;95018.31;1699495;84;20991;-54
2022/06/28 04:18:49;;;;;;;15.32;8.35;;;;;;;18.56;80.10;95025.27;1699273;84;21074;-55
2022/06/28 04:21:27;;;;;;;12.43;8.43;;;;;;;18.61;79.54;95017.58;1683036;84;21538;-54
2022/06/28 04:23:57;;;;;;;10.93;7.92;;;;;;;18.66;79.13;95023.83;1680338;84;21035;-53
2022/06/28 04:26:25;;;;;;;15.93;8.88;;;;;;;18.70;78.63;95021.61;1723688;82;21545;-57
2022/06/28 04:28:53;;;;;;;10.20;8.40;;;;;;;18.75;78.45;95020.89;1699316;84;20959;-58
2022/06/28 04:31:22;;;;;;;10.50;7.78;;;;;;;18.79;78.35;95022.81;1681737;84;21127;-57
2022/06/28 04:33:51;;;;;;;14.05;9.20;;;;;;;18.83;77.93;95017.78;1708708;82;21471;-57
2022/06/28 04:36:20;;;;;;;13.88;9.20;;;;;;;18.88;77.67;95022.66;1679014;85;21054;-56
2022/06/28 04:38:49;;;;;;;16.93;9.50;;;;;;;18.95;77.21;95024.99;1623219;87;21035;-53
2022/06/28 04:41:24;;;;;;;17.60;9.55;;;;;;;19.06;76.91;95011.77;1654291;85;20974;-54
2022/06/28 04:43:58;;;;;;;14.73;8.70;;;;;;;19.14;76.69;95014.22;1642513;85;21018;-54
2022/06/28 04:46:30;;;;;;;;;;;;;;;19.16;76.27;95009.72;1681814;85;21258;-54
2022/06/28 04:48:59;;;;;;;14.60;9.03;;;;;;;19.17;76.26;95012.64;1679066;84;20092;-54
2022/06/28 04:51:30;;;;;;;21.93;8.83;;;;;;;19.24;76.35;95003.05;1678240;85;21022;-55
2022/06/28 04:53:58;;;;;;;26.87;12.23;;;;;;;19.39;75.98;95003.67;1648865;87;20999;-54
2022/06/28 04:56:26;;;;;;;15.65;8.30;;;;;;;19.50;75.50;95005.89;1672218;85;20948;-54
2022/06/28 04:58:55;;;;;;;11.75;7.97;;;;;;;19.56;75.15;94999.70;1649004;86;21155;-54
2022/06/28 05:01:23;;;;;;;13.95;8.25;;;;;;;19.58;74.84;94997.17;1671929;85;20995;-54
2022/06/28 05:03:52;;;;;;;15.05;7.67;;;;;;;19.60;74.39;94996.03;1648920;86;21052;-55
2022/06/28 05:06:39;;;;;;;15.53;8.38;;;;;;;19.62;74.07;95001.91;1679360;85;21006;-54
2022/06/28 05:09:07;;;;;;;12.68;7.60;;;;;;;19.59;73.76;95001.48;1649018;86;21059;-54
2022/06/28 05:11:37;;;;;;;10.98;7.17;;;;;;;19.60;73.68;94997.43;1679248;85;21143;-54
2022/06/28 05:14:12;;;;;;;19.52;8.68;;;;;;;19.66;73.62;94994.06;1647901;87;21086;-54
2022/06/28 05:16:42;;;;;;;12.88;7.65;;;;;;;19.73;73.29;94999.16;1654457;85;20999;-54
2022/06/28 05:19:11;;;;;;;20.25;7.72;;;;;;;19.77;73.33;94992.70;1679213;85;20979;-53
2022/06/28 05:21:39;;;;;;;11.68;7.10;;;;;;;19.82;73.14;94996.17;1679283;85;21041;-54
2022/06/28 05:24:08;;;;;;;15.80;6.70;;;;;;;19.87;72.69;95003.80;1679163;85;21265;-54
2022/06/28 05:26:38;;;;;;;11.75;6.80;;;;;;;19.90;72.43;95000.00;1678673;85;20994;-55
2022/06/28 05:29:15;;;;;;;12.30;6.25;;;;;;;19.95;72.34;95006.23;1679256;85;20970;-54
2022/06/28 05:31:43;;;;;;;9.65;6.22;;;;;;;20.03;71.89;95007.34;1649259;87;21432;-55
2022/06/28 05:34:11;;;;;;;8.88;6.30;;;;;;;20.12;71.34;94998.72;1685769;83;21014;-54
2022/06/28 05:36:40;;;;;;;10.50;6.03;;;;;;;20.18;70.93;94998.88;1688498;84;21253;-55
2022/06/28 05:39:09;;;;;;;15.15;6.00;;;;;;;20.27;70.84;94997.89;1726514;83;21069;-56
2022/06/28 05:41:37;;;;;;;14.40;5.92;;;;;;;20.36;70.71;95002.61;1712688;83;21089;-55
2022/06/28 05:44:05;;;;;;;10.58;5.78;;;;;;;20.44;70.26;94997.30;1690239;83;20960;-55
2022/06/28 05:46:34;;;;;;;11.25;6.50;;;;;;;20.56;69.81;95001.66;1695231;84;20952;-54
2022/06/28 05:49:02;;;;;;;8.55;6.92;;;;;;;20.68;69.94;95000.38;1666575;86;21307;-55
2022/06/28 05:51:30;;;;;;;11.63;6.78;;;;;;;20.83;70.12;94995.31;1665998;86;21049;-54
2022/06/28 05:53:59;;;;;;;14.20;6.65;;;;;;;20.96;69.43;94992.82;1647620;85;20965;-54
2022/06/28 05:56:28;;;;;;;7.65;5.80;;;;;;;21.09;69.44;94993.08;1657217;85;21016;-57
2022/06/28 05:58:56;;;;;;;13.22;5.95;;;;;;;21.22;69.03;94994.70;1676277;84;21071;-55
2022/06/28 06:01:25;;;;;;;21.95;6.97;;;;;;;21.29;68.87;94987.97;1656695;84;21243;-56
2022/06/28 06:03:54;;;;;;;6.92;5.90;;;;;;;21.37;68.66;94992.41;1682175;84;20947;-54
2022/06/28 06:06:24;;;;;;;9.95;5.95;;;;;;;21.42;68.51;94993.03;1675406;84;21075;-54
2022/06/28 06:08:56;;;;;;;8.53;5.87;;;;;;;21.48;68.06;94988.95;1674247;84;21674;-57
2022/06/28 06:11:22;;;;;;;12.25;5.65;;;;;;;21.56;67.37;94989.20;1649312;82;22039;-55
2022/06/28 06:13:51;;;;;;;13.68;5.97;;;;;;;21.64;66.97;94985.38;1604223;87;21121;-52
2022/06/28 06:16:18;;;;;;;17.52;5.67;;;;;;;21.73;66.89;94982.95;1647085;85;21043;-53
2022/06/28 06:18:46;;;;;;;17.37;13.08;;;;;;;21.84;66.47;94984.33;1685293;83;21092;-54
2022/06/28 06:21:15;;;;;;;13.78;8.55;;;;;;;22.00;65.31;94984.91;1707457;82;21453;-52
2022/06/28 06:23:43;;;;;;;9.63;6.28;;;;;;;22.13;64.73;94990.06;1675535;84;21039;-56
2022/06/28 06:26:31;;;;;;;13.25;7.10;;;;;;;22.30;63.74;94985.14;1658398;84;21168;-55
2022/06/28 06:29:00;;;;;;;8.60;6.25;;;;;;;22.49;63.13;94985.44;1662526;85;21064;-56
2022/06/28 06:31:28;;;;;;;14.80;6.05;;;;;;;22.64;62.24;94989.32;1678509;84;21087;-59
2022/06/28 06:34:14;;;;;;;7.75;6.12;;;;;;;22.69;61.80;94982.25;1687269;83;21029;-57
2022/06/28 06:36:46;;;;;;;10.03;6.12;;;;;;;22.75;61.67;94978.78;1689200;83;21057;-56
2022/06/28 06:39:14;;;;;;;18.27;5.95;;;;;;;22.79;61.23;94984.88;1664082;83;21104;-56
2022/06/28 06:41:42;;;;;;;15.90;6.20;;;;;;;22.82;61.22;94983.83;1669005;83;21067;-56
2022/06/28 06:44:10;;;;;;;13.75;6.05;;;;;;;22.89;61.28;94979.70;1689856;83;21076;-58
2022/06/28 06:46:40;;;;;;;9.90;5.85;;;;;;;22.94;61.09;94982.47;1698365;82;21028;-56
2022/06/28 06:49:09;;;;;;;13.28;8.75;;;;;;;22.99;61.16;94974.64;1686255;83;21156;-57
2022/06/28 06:51:38;;;;;;;13.13;6.65;;;;;;;23.07;60.79;94974.20;1687733;83;21839;-56
2022/06/28 06:54:06;;;;;;;12.63;5.95;;;;;;;23.14;60.74;94966.64;1696648;82;21105;-56
2022/06/28 06:56:34;;;;;;;12.13;5.92;;;;;;;23.20;60.89;94970.16;1697851;82;22329;-55
2022/06/28 06:59:01;;;;;;;8.43;6.20;;;;;;;23.25;60.93;94964.38;1675198;83;21151;-55
2022/06/28 07:01:32;;;;;;;11.55;5.58;;;;;;;23.32;61.23;94963.79;1656204;84;21039;-52
2022/06/28 07:03:59;;;;;;;14.87;6.03;;;;;;;23.39;60.77;94969.59;1696992;81;22189;-53
2022/06/28 07:06:26;;;;;;;9.10;5.92;;;;;;;23.44;61.34;94966.62;1724405;81;21094;-52
2022/06/28 07:08:55;;;;;;;10.30;5.90;;;;;;;23.48;61.86;94969.89;1735745;81;21870;-56
2022/06/28 07:11:24;;;;;;;7.40;6.08;;;;;;;23.55;62.30;94963.05;1701087;82;21034;-58
2022/06/28 07:13:53;;;;;;;11.55;6.55;;;;;;;23.65;61.59;94960.66;1688586;82;21107;-57
2022/06/28 07:16:20;;;;;;;8.48;5.90;;;;;;;23.78;60.83;94964.33;1719909;82;21086;-57
2022/06/28 07:18:49;;;;;;;9.45;6.30;;;;;;;23.93;59.98;94956.94;1708728;82;21012;-54
2022/06/28 07:21:18;;;;;;;5.97;5.40;;;;;;;24.04;59.38;94957.56;1705979;82;21154;-57
2022/06/28 07:23:45;;;;;;;7.22;4.78;;;;;;;24.12;58.24;94947.99;1701090;82;21082;-57
2022/06/28 07:26:13;;;;;;;8.08;4.70;;;;;;;24.24;57.80;94947.20;1684662;84;21635;-57
2022/06/28 07:28:42;;;;;;;8.83;5.37;;;;;;;24.37;57.40;94951.51;1705571;84;22305;-58
2022/06/28 07:31:11;;;;;;;5.67;5.10;;;;;;;24.47;57.00;94951.23;1702870;82;21138;-57
2022/06/28 07:36:24;;;;;;;7.05;5.67;;;;;;;24.69;56.54;94950.30;1749029;78;25912;-58
2022/06/28 07:38:54;;;;;;;8.75;5.45;;;;;;;24.81;56.04;94952.30;1731231;80;21149;-58
2022/06/28 07:41:23;;;;;;;7.70;4.90;;;;;;;24.92;55.65;94948.66;1717601;80;21204;-58
2022/06/28 07:44:09;;;;;;;5.80;4.60;;;;;;;25.00;53.81;94948.80;1700663;81;21571;-59
2022/06/28 07:46:39;;;;;;;5.67;4.37;;;;;;;25.04;53.92;94945.02;1691165;82;21128;-58
2022/06/28 07:49:11;;;;;;;13.93;5.55;;;;;;;25.14;54.47;94938.43;1727743;81;21051;-62
2022/06/28 07:54:25;;;;;;;11.03;4.78;;;;;;;25.40;53.78;94940.58;1697149;80;21192;-59
2022/06/28 07:56:58;;;;;;;7.42;4.22;;;;;;;25.50;54.28;94941.70;1719308;81;21101;-61
2022/06/28 07:59:26;;;;;;;10.63;5.22;;;;;;;25.61;53.26;94937.25;1714917;80;21025;-64
2022/06/28 08:01:54;;;;;;;7.83;4.85;;;;;;;25.74;54.03;94924.58;1723752;81;20978;-62
2022/06/28 08:04:24;;;;;;;6.40;3.75;;;;;;;25.87;54.50;94931.66;1722885;80;21199;-63
2022/06/28 08:06:53;;;;;;;5.87;3.77;;;;;;;25.98;52.69;94929.38;1702925;81;21171;-60
2022/06/28 08:09:23;;;;;;;7.30;3.65;;;;;;;26.13;51.61;94935.98;1699197;81;21102;-62
2022/06/28 08:11:52;;;;;;;4.50;4.00;;;;;;;26.33;49.80;94926.83;1704378;81;21013;-62
2022/06/28 08:14:21;;;;;;;6.30;4.00;;;;;;;26.52;49.58;94933.11;1720776;81;21781;-62
2022/06/28 08:16:50;;;;;;;4.50;3.52;;;;;;;26.73;50.22;94932.52;1726624;81;21639;-61
2022/06/28 08:19:20;;;;;;;7.20;3.42;;;;;;;26.97;49.83;94932.20;1735003;81;22035;-60
2022/06/28 08:21:49;;;;;;;6.20;3.75;;;;;;;27.19;49.94;94927.44;1715670;80;21018;-63
2022/06/28 08:24:17;;;;;;;8.35;4.03;;;;;;;27.44;48.36;94931.41;1728513;80;21029;-63
2022/06/28 08:26:45;;;;;;;5.40;3.33;;;;;;;27.61;46.48;94923.26;1722669;81;21124;-59
2022/06/28 08:29:15;;;;;;;6.83;4.00;;;;;;;27.76;46.16;94922.66;1693489;81;21053;-61
2022/06/28 08:31:43;;;;;;;7.28;3.40;;;;;;;27.89;45.80;94923.30;1729513;81;21132;-60
2022/06/28 08:34:11;;;;;;;6.60;3.30;;;;;;;28.01;45.70;94925.94;1720180;81;21037;-60
2022/06/28 08:36:38;;;;;;;8.15;3.65;;;;;;;28.17;45.21;94927.50;1689213;82;21123;-63
2022/06/28 08:39:06;;;;;;;6.87;3.15;;;;;;;28.24;43.93;94923.30;1690541;82;21118;-61
2022/06/28 08:41:34;;;;;;;3.47;3.17;;;;;;;28.26;43.31;94929.83;1689306;83;21984;-63
2022/06/28 08:44:01;;;;;;;4.35;3.30;;;;;;;28.32;42.50;94921.31;1693100;82;21293;-62
2022/06/28 08:46:31;;;;;;;6.87;3.67;;;;;;;28.46;43.13;94925.53;1689808;82;21221;-60
2022/06/28 08:49:08;;;;;;;8.75;3.30;;;;;;;28.61;42.88;94912.08;1688989;82;21000;-62
2022/06/28 08:51:36;;;;;;;5.70;4.00;;;;;;;28.73;43.00;94921.76;1683738;82;21061;-64
2022/06/28 08:54:03;;;;;;;5.30;4.47;;;;;;;28.87;42.68;94918.20;1672587;83;21129;-67
2022/06/28 08:56:31;;;;;;;4.80;3.87;;;;;;;28.85;42.35;94910.92;1666444;83;21258;-64
2022/06/28 08:59:01;;;;;;;7.15;3.92;;;;;;;28.73;42.13;94910.42;1669678;82;21278;-65
2022/06/28 09:01:29;;;;;;;6.72;3.58;;;;;;;28.56;42.81;94910.18;1689781;82;21057;-63
2022/06/28 09:03:56;;;;;;;4.10;3.20;;;;;;;28.46;43.02;94910.61;1693205;82;21046;-62
2022/06/28 09:06:24;;;;;;;8.10;4.03;;;;;;;28.45;43.59;94911.28;1689656;82;21474;-61
2022/06/28 09:08:51;;;;;;;6.12;4.03;;;;;;;28.57;43.88;94910.28;1666399;81;21244;-62
2022/06/28 09:11:20;;;;;;;6.70;3.17;;;;;;;28.66;43.36;94909.08;1690336;82;21092;-59
2022/06/28 09:13:48;;;;;;;9.90;3.40;;;;;;;28.62;42.84;94911.50;1647061;83;21687;-60
2022/06/28 09:16:16;;;;;;;9.35;3.52;;;;;;;28.49;43.20;94904.59;1691376;82;21514;-61
2022/06/28 09:18:46;;;;;;;10.45;4.00;;;;;;;28.48;43.88;94914.40;1671429;83;21030;-59
2022/06/28 09:21:17;;;;;;;14.15;4.62;;;;;;;28.58;43.90;94911.79;1676448;83;21261;-59
2022/06/28 09:23:52;;;;;;;9.08;3.70;;;;;;;28.73;42.98;94910.42;1641851;85;21092;-62
2022/06/28 09:26:20;;;;;;;4.37;3.65;;;;;;;28.89;43.11;94910.56;1637757;84;21002;-61
2022/06/28 09:28:50;;;;;;;4.45;3.58;;;;;;;29.04;42.96;94902.87;1650081;84;21040;-58
2022/06/28 09:31:27;;;;;;;7.28;3.70;;;;;;;29.14;41.95;94903.07;1650097;84;21067;-60
2022/06/28 09:34:08;;;;;;;7.53;3.62;;;;;;;29.19;41.68;94907.14;1692242;82;21886;-62
2022/06/28 09:36:43;;;;;;;7.00;3.53;;;;;;;29.27;41.82;94897.20;1687988;82;21056;-63
2022/06/28 09:39:19;;;;;;;10.38;4.53;;;;;;;29.38;41.35;94899.67;1678477;83;21357;-61
2022/06/28 09:41:50;;;;;;;5.30;4.42;;;;;;;29.42;40.52;94896.56;1662229;84;21054;-60
2022/06/28 09:44:17;;;;;;;6.30;3.80;;;;;;;29.45;41.03;94893.23;1685067;83;21646;-55
2022/06/28 09:46:45;;;;;;;7.10;3.33;;;;;;;29.57;42.17;94891.56;1677551;84;21190;-59
2022/06/28 09:49:13;;;;;;;6.55;3.70;;;;;;;29.74;40.43;94881.81;1688651;83;21014;-58
2022/06/28 09:51:42;;;;;;;4.37;2.80;;;;;;;29.89;40.68;94890.39;1669315;83;21519;-61
2022/06/28 09:54:10;;;;;;;4.47;3.42;;;;;;;30.08;40.80;94897.08;1650284;83;21023;-57
2022/06/28 09:56:43;;;;;;;8.63;3.35;;;;;;;30.15;40.11;94895.64;1682346;83;21879;-60
2022/06/28 09:59:11;;;;;;;5.35;3.60;;;;;;;30.18;39.55;94889.50;1685544;82;22126;-61
2022/06/28 10:01:39;;;;;;;7.25;4.12;;;;;;;30.21;40.48;94886.27;1677904;83;21050;-58
2022/06/28 10:04:07;;;;;;;7.25;3.60;;;;;;;30.26;40.62;94888.79;1684988;82;22364;-59
2022/06/28 10:06:34;;;;;;;5.40;3.52;;;;;;;30.39;40.53;94892.17;1684407;83;21023;-64
2022/06/28 10:09:02;;;;;;;4.28;3.87;;;;;;;30.51;40.16;94888.23;1687764;83;21013;-57
2022/06/28 10:15:00;;;;;;;7.20;4.60;;;;;;;30.62;40.83;94892.84;1678137;83;21141;-62
2022/06/28 10:16:49;;;;;;;6.90;3.83;;;;;;;30.76;39.89;94887.00;1653829;83;21584;-58
2022/06/28 10:19:19;;;;;;;4.10;3.70;;;;;;;30.91;40.02;94889.77;1681131;83;21653;-60
2022/06/28 10:22:07;;;;;;;7.92;3.27;;;;;;;31.08;38.18;94889.81;1679995;83;21176;-60
2022/06/28 10:24:54;;;;;;;3.55;3.25;;;;;;;31.18;37.48;94889.31;1680563;83;21190;-58
2022/06/28 10:27:21;;;;;;;4.50;3.40;;;;;;;31.15;37.27;94881.95;1685399;83;21040;-60
2022/06/28 10:30:18;;;;;;;3.50;2.98;;;;;;;31.26;38.30;94878.63;1641252;83;21902;-60
2022/06/28 10:33:06;;;;;;;3.20;2.90;;;;;;;31.40;38.14;94875.59;1691935;83;21011;-59
2022/06/28 10:35:43;;;;;;;3.62;3.02;;;;;;;31.60;37.74;94880.16;1666936;83;21213;-59
2022/06/28 10:38:15;;;;;;;3.72;3.08;;;;;;;31.79;37.35;94883.23;1687266;83;21767;-56
2022/06/28 10:40:49;;;;;;;4.25;2.92;;;;;;;32.00;35.83;94867.27;1689339;83;20996;-59
2022/06/28 10:43:34;;;;;;;2.85;2.65;;;;;;;31.89;35.44;94863.48;1688612;83;21074;-60
2022/06/28 10:46:05;;;;;;;3.58;3.25;;;;;;;31.58;34.93;94857.23;1680493;82;21077;-60
2022/06/28 10:48:53;;;;;;;6.62;3.30;;;;;;;31.29;35.74;94854.74;1680440;83;22105;-58
2022/06/28 10:51:21;;;;;;;6.55;3.80;;;;;;;31.42;36.69;94855.11;1685866;83;21314;-61
2022/06/28 10:54:04;;;;;;;4.37;3.60;;;;;;;31.82;35.89;94846.48;1683337;83;21900;-58
2022/06/28 10:56:44;;;;;;;5.42;3.27;;;;;;;31.91;35.48;94845.83;1685276;83;21085;-58
2022/06/28 10:59:16;;;;;;;8.70;3.33;;;;;;;32.30;34.11;94845.61;1682046;83;22068;-57
2022/06/28 11:01:53;;;;;;;5.58;3.02;;;;;;;32.61;33.79;94845.97;1678389;83;21082;-61
2022/06/28 11:04:26;;;;;;;6.33;3.27;;;;;;;32.87;34.73;94848.09;1683917;83;21205;-56
2022/06/28 11:06:58;;;;;;;5.25;3.55;;;;;;;33.11;34.28;94844.34;1690174;83;21016;-61
2022/06/28 11:09:50;;;;;;;7.72;3.35;;;;;;;33.30;33.82;94840.17;1691545;83;20961;-52
2022/06/28 11:12:36;;;;;;;7.12;3.72;;;;;;;33.51;32.62;94838.95;1688451;83;21018;-54
2022/06/28 11:15:09;;;;;;;3.58;3.25;;;;;;;33.82;31.75;94836.42;1687274;83;21078;-60
2022/06/28 11:17:44;;;;;;;5.25;3.22;;;;;;;34.12;31.10;94833.74;1664396;83;21149;-56
2022/06/28 11:20:15;;;;;;;4.80;3.08;;;;;;;34.30;30.76;94837.98;1689273;83;21025;-55
2022/06/28 11:22:45;;;;;;;3.15;2.77;;;;;;;34.59;30.19;94840.16;1682984;83;21512;-59
2022/06/28 11:25:15;;;;;;;3.02;2.77;;;;;;;34.85;30.27;94837.79;1686413;82;21015;-62
2022/06/28 11:27:48;;;;;;;5.97;3.10;;;;;;;34.99;30.11;94843.11;1656118;83;21061;-62
2022/06/28 11:30:16;;;;;;;8.65;3.20;;;;;;;35.10;29.07;94839.59;1690216;82;22508;-61
2022/06/28 11:32:44;;;;;;;6.22;2.90;;;;;;;35.21;29.41;94826.81;1690494;82;20987;-60
2022/06/28 11:35:27;;;;;;;6.28;3.37;;;;;;;35.38;28.79;94826.56;1689964;82;22071;-60
2022/06/28 11:37:59;;;;;;;4.87;2.98;;;;;;;35.50;30.02;94826.75;1657167;83;21029;-62
2022/06/28 11:40:42;;;;;;;6.03;2.90;;;;;;;35.79;30.31;94821.62;1651896;84;21185;-62
2022/06/28 11:43:11;;;;;;;4.95;3.17;;;;;;;36.00;27.62;94821.62;1680413;83;21255;-64
2022/06/28 11:45:47;;;;;;;7.50;2.70;;;;;;;36.28;27.61;94826.42;1689055;83;21115;-60
2022/06/28 11:48:18;;;;;;;4.47;2.80;;;;;;;36.53;27.37;94818.81;1683164;83;21053;-64
2022/06/28 11:50:53;;;;;;;2.80;2.60;;;;;;;36.51;27.73;94820.78;1682039;82;21011;-60
2022/06/28 11:53:21;;;;;;;8.45;2.95;;;;;;;36.65;27.51;94821.74;1689736;83;21056;-60
2022/06/28 11:55:52;;;;;;;6.60;3.02;;;;;;;36.74;28.45;94814.48;1683447;82;21197;-60
2022/06/28 11:58:37;;;;;;;4.37;2.90;;;;;;;36.97;28.47;94825.27;1673540;82;21066;-57
2022/06/28 12:01:18;;;;;;;9.55;2.95;;;;;;;36.97;28.47;94825.27;1649360;83;21508;-62